Time;durP1;ratioP1;P1;durP2;ratioP2;P2;SDS_P1;SDS_P2;PMS_P1;PMS_P2;Temp;Humidity;BMP_temperature;BMP_pressure;BME280_temperature;BME280_humidity;BME280_pressure;Samples;Min_cycle;Max_cycle;Signal;HPM_P1;HPM_P2
2022/12/10 00:00:11;;;;;;;78.57;40.10;;;;;;;-4.05;100.00;100687.81;5282874;28;20069;-75
2022/12/10 00:02:43;;;;;;;82.40;42.35;;;;;;;-4.05;100.00;100690.38;5264807;28;20514;-76
2022/12/10 00:05:14;;;;;;;76.10;41.37;;;;;;;-4.12;100.00;100688.38;5282502;28;20028;-74
2022/12/10 00:07:45;;;;;;;87.97;42.80;;;;;;;-4.12;100.00;100690.91;5264533;28;20036;-73
2022/12/10 00:10:17;;;;;;;78.57;42.47;;;;;;;-4.16;100.00;100688.16;5283018;28;20064;-73
2022/12/10 00:12:48;;;;;;;81.27;41.57;;;;;;;-4.16;100.00;100699.22;5282817;28;20486;-75
2022/12/10 00:15:19;;;;;;;78.97;43.93;;;;;;;-4.15;100.00;100700.97;5282368;28;20083;-75
2022/12/10 00:17:51;;;;;;;87.23;42.80;;;;;;;-4.19;100.00;100695.66;5282658;28;20029;-75
2022/12/10 00:20:22;;;;;;;78.67;42.67;;;;;;;-4.17;100.00;100705.13;5267878;28;20086;-73
2022/12/10 00:22:53;;;;;;;75.70;42.13;;;;;;;-4.19;100.00;100700.75;5286579;28;20028;-76
2022/12/10 00:25:25;;;;;;;78.43;42.50;;;;;;;-4.14;100.00;100702.69;5286928;28;20468;-74
2022/12/10 00:27:56;;;;;;;88.57;44.53;;;;;;;-4.10;100.00;100704.56;5286240;28;20036;-75
2022/12/10 00:30:27;;;;;;;81.80;46.10;;;;;;;-4.05;100.00;100707.34;5268602;28;20067;-74
2022/12/10 00:32:59;;;;;;;81.40;41.63;;;;;;;-4.08;100.00;100707.19;5286257;28;20116;-76
2022/12/10 00:35:30;;;;;;;81.00;43.43;;;;;;;-4.07;100.00;100707.25;5285987;28;20075;-75
2022/12/10 00:38:02;;;;;;;83.33;44.07;;;;;;;-4.15;100.00;100700.06;5286154;28;20039;-75
2022/12/10 00:40:33;;;;;;;84.85;44.28;;;;;;;-4.15;100.00;100707.69;5285812;28;20078;-75
2022/12/10 00:43:05;;;;;;;84.50;43.13;;;;;;;-4.18;100.00;100699.97;5268350;28;20031;-75
2022/12/10 00:45:36;;;;;;;85.10;42.57;;;;;;;-4.22;100.00;100697.28;5286310;28;20040;-75
2022/12/10 00:48:07;;;;;;;80.87;42.83;;;;;;;-4.17;100.00;100706.78;5285942;28;20028;-75
2022/12/10 00:50:39;;;;;;;87.07;47.83;;;;;;;-4.16;100.00;100699.22;5285915;28;20037;-76
2022/12/10 00:53:10;;;;;;;80.83;44.13;;;;;;;-4.23;100.00;100687.88;5285775;28;20025;-75
2022/12/10 00:55:41;;;;;;;80.33;42.93;;;;;;;-4.27;100.00;100680.88;5286733;28;20056;-75
2022/12/10 00:58:13;;;;;;;85.47;44.10;;;;;;;-4.27;100.00;100691.06;5285478;28;20033;-75
2022/12/10 01:00:44;;;;;;;76.07;42.30;;;;;;;-4.32;100.00;100686.59;5285710;28;20036;-75
2022/12/10 01:03:15;;;;;;;79.67;45.90;;;;;;;-4.31;100.00;100684.13;5285904;28;20040;-74
2022/12/10 01:05:47;;;;;;;80.47;43.60;;;;;;;-4.28;100.00;100679.16;5267709;28;20075;-74
2022/12/10 01:08:18;;;;;;;83.60;44.77;;;;;;;-4.30;100.00;100688.41;5285981;28;20028;-74
2022/12/10 01:10:53;;;;;;;87.13;44.87;;;;;;;-4.31;100.00;100694.28;5285691;28;20033;-74
2022/12/10 01:13:24;;;;;;;85.75;44.88;;;;;;;-4.35;100.00;100692.41;5285119;28;20058;-73
2022/12/10 01:15:56;;;;;;;86.87;46.73;;;;;;;-4.41;100.00;100687.91;5285356;28;20032;-74
2022/12/10 01:18:27;;;;;;;91.27;47.40;;;;;;;-4.45;100.00;100693.66;5285250;28;20063;-74
2022/12/10 01:21:10;;;;;;;83.27;45.93;;;;;;;-4.37;100.00;100690.59;5285384;28;20422;-74
2022/12/10 01:23:42;;;;;;;;;;;;;;;-4.46;100.00;100691.94;5286256;28;20036;-74
2022/12/10 01:26:25;;;;;;;87.75;44.10;;;;;;;-4.44;100.00;100697.94;5285693;28;19943;-74
2022/12/10 01:28:57;;;;;;;81.68;43.97;;;;;;;-4.43;100.00;100707.34;5267446;28;20463;-74
2022/12/10 01:31:37;;;;;;;82.30;44.80;;;;;;;-4.43;100.00;100704.78;5285563;28;20029;-75
2022/12/10 01:34:12;;;;;;;84.22;46.67;;;;;;;-4.33;100.00;100711.19;5285552;28;20578;-75
2022/12/10 01:36:47;;;;;;;84.80;45.42;;;;;;;-4.26;100.00;100708.09;5285017;28;20036;-75
2022/12/10 01:39:21;;;;;;;88.13;46.70;;;;;;;-4.14;100.00;100710.31;5284606;28;20063;-74
2022/12/10 01:41:55;;;;;;;93.18;48.10;;;;;;;-4.15;100.00;100720.44;5285176;28;20032;-75
2022/12/10 01:44:26;;;;;;;92.85;50.17;;;;;;;-4.12;100.00;100729.09;5284945;28;20110;-75
2022/12/10 01:47:00;;;;;;;105.83;51.40;;;;;;;-4.06;100.00;100723.41;5285005;28;20108;-74
2022/12/10 01:49:35;;;;;;;104.50;50.65;;;;;;;-4.00;100.00;100731.31;5285330;28;20029;-74
2022/12/10 01:52:10;;;;;;;102.72;52.10;;;;;;;-4.00;100.00;100728.78;5284714;28;20025;-72
2022/12/10 01:54:45;;;;;;;102.40;51.92;;;;;;;-3.98;100.00;100723.75;5266387;28;20056;-75
2022/12/10 01:57:22;;;;;;;198.57;53.03;;;;;;;-3.98;100.00;100728.84;5284584;28;20107;-75
2022/12/10 02:00:00;;;;;;;247.52;54.50;;;;;;;-4.03;100.00;100721.84;5284487;28;20044;-75
2022/12/10 02:02:52;;;;;;;203.02;54.30;;;;;;;-3.95;100.00;100718.81;5284397;28;20111;-75
2022/12/10 02:05:36;;;;;;;156.18;50.45;;;;;;;-3.99;100.00;100727.09;5267106;28;20032;-75
2022/12/10 02:08:24;;;;;;;133.30;48.80;;;;;;;-3.98;100.00;100723.75;5284324;28;20028;-75
2022/12/10 02:11:16;;;;;;;115.38;50.72;;;;;;;-3.92;100.00;100719.81;5284500;28;20062;-75
2022/12/10 02:14:03;;;;;;;151.90;51.20;;;;;;;-3.88;100.00;100718.25;5284438;28;20024;-75
2022/12/10 02:16:45;;;;;;;135.07;52.92;;;;;;;-3.88;100.00;100721.69;5284724;28;20029;-75
2022/12/10 02:19:36;;;;;;;109.75;52.42;;;;;;;-3.79;100.00;100716.13;5284394;28;20036;-75
2022/12/10 02:22:10;;;;;;;116.63;53.92;;;;;;;-3.76;100.00;100721.34;5284362;28;20091;-75
2022/12/10 02:24:42;;;;;;;112.90;52.13;;;;;;;-3.71;100.00;100719.00;5284159;28;20107;-75
2022/12/10 02:27:24;;;;;;;113.82;53.10;;;;;;;-3.67;100.00;100718.31;5284573;28;20036;-75
2022/12/10 02:29:57;;;;;;;111.60;53.80;;;;;;;-3.66;100.00;100715.84;5284021;28;20028;-75
2022/12/10 02:32:37;;;;;;;142.15;55.63;;;;;;;-3.61;100.00;100715.19;5283845;28;20028;-75
2022/12/10 02:35:20;;;;;;;132.70;51.80;;;;;;;-3.58;100.00;100715.31;5284381;28;20116;-75
2022/12/10 02:37:58;;;;;;;129.52;52.40;;;;;;;-3.56;100.00;100712.06;5284162;28;20036;-75
2022/12/10 02:40:35;;;;;;;112.50;51.60;;;;;;;-3.53;100.00;100718.94;5266505;28;20032;-73
2022/12/10 02:43:08;;;;;;;124.38;52.42;;;;;;;-3.51;100.00;100717.31;5283663;28;20410;-73
2022/12/10 02:45:42;;;;;;;137.50;53.67;;;;;;;-3.51;100.00;100718.22;5283524;28;20029;-73
2022/12/10 02:48:14;;;;;;;125.72;53.78;;;;;;;-3.43;100.00;100710.00;5283549;28;20024;-72
2022/12/10 02:50:45;;;;;;;116.05;52.58;;;;;;;-3.45;100.00;100702.28;5284136;28;20043;-74
2022/12/10 02:53:17;;;;;;;118.07;53.37;;;;;;;-3.42;100.00;100707.53;5283306;28;20142;-74
2022/12/10 02:56:08;;;;;;;121.70;51.93;;;;;;;-3.38;100.00;100717.06;5283097;28;20035;-74
2022/12/10 02:59:05;;;;;;;115.72;52.30;;;;;;;-3.40;100.00;100716.09;5283784;28;20036;-74
2022/12/10 03:01:39;;;;;;;133.13;53.17;;;;;;;-3.37;100.00;100726.44;5283365;28;20055;-74
2022/12/10 03:04:18;;;;;;;105.50;52.00;;;;;;;-3.37;100.00;100723.88;5282945;28;20475;-75
2022/12/10 03:06:57;;;;;;;122.03;52.20;;;;;;;-3.31;100.00;100726.69;5283515;28;20103;-75
2022/12/10 03:09:39;;;;;;;112.57;52.20;;;;;;;-3.32;100.00;100731.72;5283640;28;20518;-74
2022/12/10 03:12:28;;;;;;;103.53;49.40;;;;;;;-3.31;100.00;100731.78;5283620;28;20109;-73
2022/12/10 03:15:03;;;;;;;111.97;52.13;;;;;;;-3.33;100.00;100727.44;5283511;28;20029;-73
2022/12/10 03:17:36;;;;;;;113.05;49.20;;;;;;;-3.33;100.00;100727.44;5283611;28;20376;-74
2022/12/10 03:20:10;;;;;;;107.95;49.08;;;;;;;-3.35;100.00;100726.50;5282946;28;20028;-73
2022/12/10 03:22:46;;;;;;;122.80;50.22;;;;;;;-3.32;100.00;100721.53;5282945;28;20071;-74
2022/12/10 03:25:22;;;;;;;109.80;49.20;;;;;;;-3.32;100.00;100724.06;5282453;28;20036;-73
2022/12/10 03:27:55;;;;;;;109.47;48.70;;;;;;;-3.28;100.00;100722.53;5282628;28;20032;-73
2022/12/10 03:30:30;;;;;;;116.75;49.60;;;;;;;-3.31;100.00;100719.03;5264697;28;20476;-74
2022/12/10 03:33:03;;;;;;;116.75;50.33;;;;;;;-3.29;100.00;100721.66;5264829;28;20033;-75
2022/12/10 03:35:35;;;;;;;112.15;47.88;;;;;;;-3.27;100.00;100721.72;5282597;28;20426;-74
2022/12/10 03:38:07;;;;;;;107.10;49.10;;;;;;;-3.27;100.00;100729.38;5283109;28;20044;-74
2022/12/10 03:40:40;;;;;;;118.88;50.05;;;;;;;-3.26;100.00;100724.34;5283365;28;20059;-73
2022/12/10 03:43:14;;;;;;;;;;;;;;;-3.21;100.00;100727.94;5283743;28;20037;-73
2022/12/10 03:45:45;;;;;;;128.55;50.40;;;;;;;-3.28;100.00;100728.50;5282722;28;19930;-73
2022/12/10 03:48:16;;;;;;;104.67;49.27;;;;;;;-3.25;100.00;100727.75;5282685;28;20041;-73
2022/12/10 03:50:48;;;;;;;130.10;50.83;;;;;;;-3.28;100.00;100731.06;5283033;28;20049;-73
2022/12/10 03:53:19;;;;;;;154.33;50.40;;;;;;;-3.28;100.00;100727.63;5282230;28;20064;-73
2022/12/10 03:55:50;;;;;;;130.27;47.57;;;;;;;-3.22;100.00;100743.19;5285020;28;20446;-73
2022/12/10 03:58:22;;;;;;;127.07;49.17;;;;;;;-3.25;100.00;100738.84;5287445;28;20444;-74
2022/12/10 04:00:53;;;;;;;156.80;48.93;;;;;;;-3.23;100.00;100736.34;5287023;28;20029;-73
2022/12/10 04:03:24;;;;;;;230.40;51.53;;;;;;;-3.23;100.00;100736.34;5286803;28;20095;-74
2022/12/10 04:06:10;;;;;;;176.20;50.00;;;;;;;-3.27;100.00;100740.44;5286740;28;20071;-73
2022/12/10 04:08:41;;;;;;;118.72;51.58;;;;;;;-3.25;100.00;100741.38;5287291;28;20035;-74
2022/12/10 04:11:14;;;;;;;118.33;49.97;;;;;;;-3.24;100.00;100735.47;5286571;28;20032;-74
2022/12/10 04:16:37;;;;;;;114.10;49.58;;;;;;;-3.19;100.00;100738.22;5286648;28;19919;-74
2022/12/10 04:19:11;;;;;;;118.75;50.35;;;;;;;-3.18;100.00;100738.28;5286457;28;20476;-74
2022/12/10 04:27:31;;;;;;;128.00;52.00;;;;;;;-3.15;100.00;100737.56;5286692;28;20112;-74
2022/12/10 04:30:05;;;;;;;125.10;51.75;;;;;;;-3.13;100.00;100733.38;5286254;28;20028;-74
2022/12/10 04:32:37;;;;;;;125.18;52.95;;;;;;;-3.10;100.00;100736.06;5285794;28;20062;-75
2022/12/10 04:35:09;;;;;;;112.40;48.07;;;;;;;-3.05;100.00;100747.31;5286150;28;20077;-74
2022/12/10 04:37:40;;;;;;;131.07;50.55;;;;;;;-3.04;100.00;100737.97;5286101;28;20031;-74
2022/12/10 04:40:12;;;;;;;127.13;53.20;;;;;;;-3.04;100.00;100746.53;5286258;28;20033;-74
2022/12/10 04:42:43;;;;;;;118.50;50.47;;;;;;;-3.08;100.00;100747.19;5286154;28;20119;-73
2022/12/10 04:45:14;;;;;;;121.17;50.33;;;;;;;-3.03;100.00;100757.56;5267910;28;20025;-74
2022/12/10 04:47:46;;;;;;;183.67;52.67;;;;;;;-3.08;100.00;100757.38;5285752;28;20051;-74
2022/12/10 04:50:17;;;;;;;233.57;55.13;;;;;;;-3.11;100.00;100754.69;5285579;28;20108;-74
2022/12/10 04:52:48;;;;;;;126.00;49.67;;;;;;;-3.15;100.00;100743.50;5251262;28;20385;-74
2022/12/10 04:55:20;;;;;;;126.33;50.97;;;;;;;-3.09;100.00;100753.13;5283761;28;20434;-73
2022/12/10 04:57:52;;;;;;;143.23;52.03;;;;;;;-3.06;100.00;100760.84;5285471;28;20484;-74
2022/12/10 05:00:24;;;;;;;135.50;52.33;;;;;;;-3.04;100.00;100758.38;5268212;28;20368;-74
2022/12/10 05:02:56;;;;;;;115.95;50.33;;;;;;;-3.01;100.00;100758.50;5267751;28;20035;-74
2022/12/10 05:05:27;;;;;;;129.37;53.23;;;;;;;-3.02;100.00;100755.09;5284833;28;20032;-74
2022/12/10 05:07:58;;;;;;;122.87;50.00;;;;;;;-2.99;100.00;100756.91;5267609;28;20036;-74
2022/12/10 05:10:30;;;;;;;119.03;53.53;;;;;;;-3.02;100.00;100744.91;5285758;28;20376;-74
2022/12/10 05:13:01;;;;;;;134.23;51.53;;;;;;;-3.03;100.00;100745.69;5285693;28;20028;-73
2022/12/10 05:15:32;;;;;;;121.97;52.00;;;;;;;-3.01;100.00;100754.31;5285602;28;20112;-74
2022/12/10 05:18:04;;;;;;;128.60;50.47;;;;;;;-2.96;100.00;100750.25;5285308;28;20463;-74
2022/12/10 05:20:35;;;;;;;145.73;53.20;;;;;;;-2.97;100.00;100763.81;5284995;28;20058;-74
2022/12/10 05:26:10;;;;;;;115.50;46.20;;;;;;;-3.02;100.00;100757.66;5285364;28;20033;-75
2022/12/10 05:28:47;;;;;;;138.77;48.10;;;;;;;-3.08;100.00;100757.38;5269066;28;20104;-75
2022/12/10 05:31:24;;;;;;;158.35;52.13;;;;;;;-3.12;100.00;100764.03;5287457;28;20097;-75
2022/12/10 05:33:57;;;;;;;123.82;48.42;;;;;;;-3.08;100.00;100759.06;5287173;28;20090;-75
2022/12/10 05:36:31;;;;;;;135.80;49.88;;;;;;;-3.06;100.00;100763.41;5287249;28;20418;-75
2022/12/10 05:39:03;;;;;;;119.40;49.45;;;;;;;-3.09;100.00;100742.00;5286758;28;20078;-74
2022/12/10 05:41:37;;;;;;;117.63;49.25;;;;;;;-3.11;100.00;100749.59;5285950;28;20036;-75
2022/12/10 05:44:09;;;;;;;124.68;48.78;;;;;;;-3.09;100.00;100748.00;5285583;28;20036;-75
2022/12/10 05:46:41;;;;;;;116.32;47.72;;;;;;;-3.08;100.00;100751.41;5284909;28;20032;-75
2022/12/10 05:49:12;;;;;;;143.00;49.53;;;;;;;-3.09;100.00;100750.56;5284900;28;20029;-74
2022/12/10 05:51:44;;;;;;;118.07;48.77;;;;;;;-3.07;100.00;100758.28;5285080;28;20025;-74
2022/12/10 05:54:15;;;;;;;120.17;46.13;;;;;;;-3.04;100.00;100756.72;5284654;28;20098;-74
2022/12/10 05:56:46;;;;;;;119.90;49.30;;;;;;;-3.03;100.00;100755.03;5285081;28;20040;-75
2022/12/10 05:59:18;;;;;;;108.50;45.03;;;;;;;-3.03;100.00;100761.00;5284225;28;20571;-75
2022/12/10 06:01:49;;;;;;;112.50;45.90;;;;;;;-3.01;100.00;100766.16;5284490;28;20057;-75
2022/12/10 06:04:20;;;;;;;121.73;45.90;;;;;;;-3.02;100.00;100767.84;5284633;28;20112;-74
2022/12/10 06:06:52;;;;;;;125.53;46.33;;;;;;;-3.02;100.00;100769.53;5284247;28;20490;-75
2022/12/10 06:09:23;;;;;;;109.00;45.27;;;;;;;-3.04;100.00;100774.56;5284014;28;20035;-74
2022/12/10 06:11:55;;;;;;;121.47;46.10;;;;;;;-3.08;100.00;100761.63;5284283;28;20059;-75
2022/12/10 06:14:26;;;;;;;117.17;44.80;;;;;;;-3.05;100.00;100770.25;5284452;28;20538;-75
2022/12/10 06:16:57;;;;;;;137.87;48.50;;;;;;;-3.07;100.00;100774.44;5283901;28;20037;-75
2022/12/10 06:19:29;;;;;;;108.03;42.50;;;;;;;-3.03;100.00;100771.19;5284401;28;20082;-74
2022/12/10 06:22:00;;;;;;;112.93;45.80;;;;;;;-3.02;100.00;100775.50;5266059;28;20043;-74
2022/12/10 06:24:32;;;;;;;115.50;42.33;;;;;;;-3.02;100.00;100770.41;5284198;28;20040;-74
2022/12/10 06:27:05;;;;;;;130.13;42.33;;;;;;;-3.10;100.00;100770.91;5265578;28;20021;-75
2022/12/10 06:29:36;;;;;;;111.05;43.25;;;;;;;-3.08;100.00;100777.78;5284446;28;20085;-73
2022/12/10 06:32:08;;;;;;;104.60;43.43;;;;;;;-3.07;100.00;100771.88;5284187;28;20032;-73
2022/12/10 06:34:39;;;;;;;97.87;40.87;;;;;;;-3.07;100.00;100777.00;5283423;28;20069;-73
2022/12/10 06:37:10;;;;;;;107.53;44.40;;;;;;;-3.03;100.00;100778.84;5283862;28;20085;-73
2022/12/10 06:39:42;;;;;;;110.80;45.83;;;;;;;-3.05;100.00;100772.81;5283475;28;20037;-74
2022/12/10 06:42:13;;;;;;;112.40;45.43;;;;;;;-3.04;100.00;100772.03;5283478;28;20032;-73
2022/12/10 06:44:46;;;;;;;114.88;43.33;;;;;;;-3.01;100.00;100773.81;5266131;28;20471;-73
2022/12/10 06:47:18;;;;;;;107.45;42.45;;;;;;;-2.96;100.00;100780.00;5283912;28;20035;-73
2022/12/10 06:49:49;;;;;;;123.03;45.10;;;;;;;-3.00;100.00;100773.00;5265563;28;20384;-73
2022/12/10 06:52:21;;;;;;;114.23;46.33;;;;;;;-2.96;100.00;100782.56;5283485;28;20029;-73
2022/12/10 06:54:54;;;;;;;112.40;45.63;;;;;;;-2.96;100.00;100780.00;5261240;28;20045;-74
2022/12/10 06:57:26;;;;;;;135.68;50.88;;;;;;;-2.97;100.00;100791.84;5262899;28;20143;-74
2022/12/10 06:59:57;;;;;;;132.03;46.83;;;;;;;-2.98;100.00;100794.34;5262986;28;20447;-73
2022/12/10 07:02:29;;;;;;;135.47;47.33;;;;;;;-2.97;100.00;100798.66;5262679;28;20040;-73
2022/12/10 07:05:00;;;;;;;118.70;49.20;;;;;;;-3.02;100.00;100803.56;5261340;28;20086;-74
2022/12/10 07:07:31;;;;;;;128.13;49.67;;;;;;;-2.98;100.00;100807.09;5262547;28;20380;-73
2022/12/10 07:10:04;;;;;;;130.67;50.37;;;;;;;-2.93;100.00;100813.25;5262790;28;20033;-74
2022/12/10 07:12:35;;;;;;;;;;;;;;;-2.88;100.00;100813.47;5262657;28;20033;-74
2022/12/10 07:15:07;;;;;;;127.80;50.03;;;;;;;-2.88;100.00;100816.91;5262424;28;20418;-74
2022/12/10 07:17:39;;;;;;;125.35;52.45;;;;;;;-2.90;100.00;100807.44;5262526;28;20029;-75
2022/12/10 07:20:11;;;;;;;134.37;51.17;;;;;;;-2.91;100.00;100806.56;5262479;28;20103;-77
2022/12/10 07:22:43;;;;;;;126.28;49.47;;;;;;;-2.88;100.00;100806.69;5262430;28;20032;-74
2022/12/10 07:25:14;;;;;;;121.00;50.50;;;;;;;-2.85;100.00;100814.47;5262366;28;20116;-74
2022/12/10 07:27:45;;;;;;;132.73;53.33;;;;;;;-2.82;100.00;100813.72;5263187;28;20032;-73
2022/12/10 07:30:17;;;;;;;133.50;53.00;;;;;;;-2.81;100.00;100816.34;5266743;28;20194;-75
2022/12/10 07:32:48;;;;;;;132.10;54.07;;;;;;;-2.80;100.00;100815.53;5266694;28;20063;-74
2022/12/10 07:35:19;;;;;;;166.80;58.47;;;;;;;-2.86;100.00;100819.53;5266588;28;20029;-73
2022/12/10 07:37:51;;;;;;;186.23;55.07;;;;;;;-2.91;100.00;100818.44;5267115;28;20041;-73
2022/12/10 07:40:22;;;;;;;154.50;51.37;;;;;;;-2.89;100.00;100827.03;5266734;28;20032;-73
2022/12/10 07:42:53;;;;;;;207.60;53.53;;;;;;;-2.90;100.00;100825.28;5265782;28;20116;-73
2022/12/10 07:45:25;;;;;;;168.00;52.73;;;;;;;-2.90;100.00;100830.38;5266531;28;20037;-73
2022/12/10 07:47:56;;;;;;;181.43;54.13;;;;;;;-2.87;100.00;100830.50;5264768;28;20187;-73
2022/12/10 07:50:27;;;;;;;143.60;53.47;;;;;;;-2.82;100.00;100826.47;5266104;28;20052;-75
2022/12/10 07:52:59;;;;;;;146.03;52.10;;;;;;;-2.82;100.00;100835.03;5266128;28;20029;-74
2022/12/10 07:55:30;;;;;;;144.63;50.43;;;;;;;-2.83;100.00;100828.16;5279917;28;20119;-74
2022/12/10 07:58:03;;;;;;;140.80;55.80;;;;;;;-2.77;100.00;100836.09;5286929;28;20070;-74
2022/12/10 08:00:35;;;;;;;147.98;52.33;;;;;;;-2.79;100.00;100840.22;5286659;28;20033;-74
2022/12/10 08:03:06;;;;;;;135.02;50.08;;;;;;;-2.83;100.00;100833.25;5286728;28;20521;-74
2022/12/10 08:05:38;;;;;;;301.40;59.63;;;;;;;-2.85;100.00;100842.53;5286439;28;20032;-74
2022/12/10 08:08:10;;;;;;;169.23;51.00;;;;;;;-2.84;100.00;100836.63;5286426;28;20024;-74
2022/12/10 08:10:41;;;;;;;144.10;51.13;;;;;;;-2.82;100.00;100841.78;5286700;28;20028;-74
2022/12/10 08:13:13;;;;;;;191.93;54.93;;;;;;;-2.83;100.00;100853.69;5286415;28;20035;-74
2022/12/10 08:15:44;;;;;;;150.23;48.00;;;;;;;-2.84;100.00;100851.91;5286529;28;20029;-72
2022/12/10 08:18:15;;;;;;;210.03;51.20;;;;;;;-2.84;100.00;100851.06;5286830;28;20428;-73
2022/12/10 08:20:47;;;;;;;210.07;51.27;;;;;;;-2.79;100.00;100850.44;5286177;28;20036;-73
2022/12/10 08:23:18;;;;;;;168.13;46.63;;;;;;;-2.82;100.00;100849.44;5286482;28;20059;-74
2022/12/10 08:25:49;;;;;;;276.90;60.83;;;;;;;-2.85;100.00;100854.41;5285707;28;20067;-73
2022/12/10 08:28:21;;;;;;;170.07;52.83;;;;;;;-2.82;100.00;100862.19;5285731;28;20031;-73
2022/12/10 08:30:52;;;;;;;178.50;49.73;;;;;;;-2.79;100.00;100859.78;5285437;28;20116;-73
2022/12/10 08:33:24;;;;;;;193.17;51.10;;;;;;;-2.76;100.00;100862.44;5268147;28;20085;-73
2022/12/10 08:36:01;;;;;;;194.73;52.50;;;;;;;-2.73;100.00;100869.38;5285839;28;20036;-73
2022/12/10 08:38:33;;;;;;;174.48;49.97;;;;;;;-2.70;100.00;100865.28;5285781;28;20037;-73
2022/12/10 08:41:14;;;;;;;201.30;49.30;;;;;;;-2.66;100.00;100881.56;5284871;28;20082;-73
2022/12/10 08:43:47;;;;;;;165.52;49.15;;;;;;;-2.63;100.00;100882.56;5267689;28;20111;-73
2022/12/10 08:46:18;;;;;;;;;;;;;;;-2.52;100.00;100880.47;5286044;28;20552;-73
2022/12/10 08:48:49;;;;;;;167.02;46.58;;;;;;;-2.57;100.00;100887.94;5285721;28;20015;-72
2022/12/10 08:51:21;;;;;;;151.33;45.80;;;;;;;-2.54;100.00;100881.22;5285560;28;20086;-73
2022/12/10 08:53:53;;;;;;;153.63;47.60;;;;;;;-2.49;100.00;100882.31;5285651;28;20093;-74
2022/12/10 08:56:24;;;;;;;182.67;48.90;;;;;;;-2.53;100.00;100882.97;5286239;28;20036;-73
2022/12/10 08:58:56;;;;;;;144.17;45.97;;;;;;;-2.49;100.00;100880.59;5286096;28;20136;-73
2022/12/10 09:01:27;;;;;;;151.07;45.97;;;;;;;-2.54;100.00;100883.75;5285524;28;20036;-73
2022/12/10 09:04:00;;;;;;;140.43;44.60;;;;;;;-2.51;100.00;100899.22;5267471;28;20033;-73
2022/12/10 09:06:31;;;;;;;;;;;;;;;-2.43;100.00;100896.19;5285644;28;20043;-73
2022/12/10 09:09:03;;;;;;;174.95;43.60;;;;;;;-2.55;100.00;100895.66;5285305;28;20001;-74
2022/12/10 09:11:34;;;;;;;150.20;46.23;;;;;;;-2.55;100.00;100899.91;5285011;28;20071;-72
2022/12/10 09:14:06;;;;;;;148.23;45.20;;;;;;;-2.51;100.00;100892.44;5285007;28;20020;-73
2022/12/10 09:16:41;;;;;;;137.90;43.03;;;;;;;-2.49;100.00;100900.16;5250701;28;20036;-72
2022/12/10 09:19:13;;;;;;;114.93;39.92;;;;;;;-2.53;100.00;100901.69;5285036;28;20021;-72
2022/12/10 09:21:44;;;;;;;126.93;39.77;;;;;;;-2.51;100.00;100899.22;5285620;28;20031;-73
2022/12/10 09:24:15;;;;;;;128.73;40.27;;;;;;;-2.53;100.00;100903.38;5284814;28;20033;-73
2022/12/10 09:26:47;;;;;;;189.47;43.63;;;;;;;-2.52;100.00;100903.44;5285149;28;20115;-73
2022/12/10 09:29:19;;;;;;;138.10;39.70;;;;;;;-2.48;100.00;100900.22;5284778;28;20405;-73
2022/12/10 09:31:51;;;;;;;136.68;41.97;;;;;;;-2.42;100.00;100904.69;5267146;28;20032;-73
2022/12/10 09:34:23;;;;;;;130.20;40.20;;;;;;;-2.45;100.00;100897.78;5285339;28;20089;-73
2022/12/10 09:36:54;;;;;;;246.67;50.57;;;;;;;-2.55;100.00;100905.88;5285346;28;20044;-74
2022/12/10 09:39:26;;;;;;;123.60;38.60;;;;;;;-2.49;100.00;100906.13;5284664;28;20412;-74
2022/12/10 09:42:15;;;;;;;192.40;47.37;;;;;;;-2.47;100.00;100916.41;5284229;28;20036;-74
2022/12/10 09:45:04;;;;;;;148.75;43.35;;;;;;;-2.45;100.00;100925.84;5284411;28;20455;-74
2022/12/10 09:47:44;;;;;;;136.75;43.33;;;;;;;-2.41;100.00;100914.97;5267030;28;20040;-74
2022/12/10 09:50:23;;;;;;;121.57;40.70;;;;;;;-2.33;100.00;100912.75;5284974;28;20440;-74
2022/12/10 09:52:57;;;;;;;139.68;47.10;;;;;;;-2.48;100.00;100917.22;5284199;28;20105;-74
2022/12/10 09:55:36;;;;;;;102.60;39.70;;;;;;;-2.42;100.00;100920.88;5284123;28;20055;-74
2022/12/10 09:58:22;;;;;;;100.40;38.40;;;;;;;-2.37;100.00;100928.75;5283946;28;20494;-73
2022/12/10 10:01:05;;;;;;;104.95;37.05;;;;;;;-2.36;100.00;100916.88;5265739;28;20035;-74
2022/12/10 10:03:41;;;;;;;88.70;36.50;;;;;;;-2.26;100.00;100929.19;5284401;28;20036;-74
2022/12/10 10:06:13;;;;;;;89.20;38.20;;;;;;;-2.25;100.00;100930.94;5284030;28;20115;-72
2022/12/10 10:08:46;;;;;;;;;;;;;;;-2.17;100.00;100938.91;5284266;28;20033;-73
2022/12/10 10:11:21;;;;;;;90.17;37.57;;;;;;;-2.20;100.00;100943.09;5265950;28;19916;-74
2022/12/10 10:14:01;;;;;;;80.97;34.90;;;;;;;-2.22;100.00;100939.59;5283704;28;20467;-74
2022/12/10 10:16:45;;;;;;;91.68;37.47;;;;;;;-2.16;100.00;100943.22;5266008;28;20150;-73
2022/12/10 10:19:24;;;;;;;86.75;34.53;;;;;;;-2.20;100.00;100932.00;5284481;28;20035;-73
2022/12/10 10:21:55;;;;;;;86.35;33.00;;;;;;;-2.25;100.00;100943.72;5283539;28;20052;-75
2022/12/10 10:24:41;;;;;;;78.87;34.50;;;;;;;-2.23;100.00;100945.50;5284250;28;20037;-73
2022/12/10 10:27:17;;;;;;;93.65;31.98;;;;;;;-2.23;100.00;100954.88;5265838;28;20031;-73
2022/12/10 10:29:51;;;;;;;106.80;34.35;;;;;;;-2.24;100.00;100942.91;5283555;28;20077;-73
2022/12/10 10:32:36;;;;;;;99.20;32.63;;;;;;;-2.15;100.00;100944.97;5283348;28;20138;-73
2022/12/10 10:35:39;;;;;;;103.00;33.90;;;;;;;-2.17;100.00;100950.03;5283922;28;20040;-73
2022/12/10 10:38:36;;;;;;;205.57;38.42;;;;;;;-2.21;100.00;100940.47;5275897;28;20537;-74
2022/12/10 10:41:14;;;;;;;126.60;34.50;;;;;;;-2.20;100.00;100942.22;5282996;28;20055;-74
2022/12/10 10:43:47;;;;;;;107.78;33.40;;;;;;;-2.17;100.00;100941.47;5265731;28;20028;-73
2022/12/10 10:46:22;;;;;;;113.22;34.15;;;;;;;-2.16;100.00;100935.56;5283189;28;20089;-74
2022/12/10 10:49:13;;;;;;;141.60;35.10;;;;;;;-2.10;100.00;100933.25;5283426;28;20024;-74
2022/12/10 10:51:45;;;;;;;95.72;34.28;;;;;;;-2.13;100.00;100928.03;5284030;28;20036;-74
2022/12/10 10:54:41;;;;;;;107.90;35.00;;;;;;;-2.03;100.00;100933.56;5283124;28;20044;-75
2022/12/10 10:57:24;;;;;;;76.13;33.55;;;;;;;-1.97;100.00;100938.06;5272218;28;20040;-75
2022/12/10 11:00:00;;;;;;;;;;;;;;;-1.95;100.00;100938.97;5283696;28;20029;-74
2022/12/10 11:02:40;;;;;;;89.75;32.83;;;;;;;-1.99;100.00;100933.72;5283644;28;19974;-74
2022/12/10 11:05:38;;;;;;;84.32;34.42;;;;;;;-1.96;100.00;100933.84;5283305;28;20120;-75
2022/12/10 11:08:17;;;;;;;79.70;36.60;;;;;;;-1.99;100.00;100932.00;5278429;28;20045;-73
2022/12/10 11:10:54;;;;;;;86.68;34.78;;;;;;;-1.87;100.00;100932.53;5282840;28;20095;-74
2022/12/10 11:13:29;;;;;;;88.70;35.35;;;;;;;-1.79;100.00;100921.72;5283024;28;20032;-74
2022/12/10 11:16:20;;;;;;;105.80;34.92;;;;;;;-1.69;100.00;100922.16;5283001;28;20470;-75
2022/12/10 11:19:01;;;;;;;91.00;33.55;;;;;;;-1.72;100.00;100922.03;5283235;28;20426;-74
2022/12/10 11:21:34;;;;;;;88.60;33.88;;;;;;;-1.67;100.00;100917.97;5283073;28;20430;-74
2022/12/10 11:24:11;;;;;;;84.47;35.80;;;;;;;-1.67;100.00;100911.97;5283131;28;20033;-75
2022/12/10 11:26:42;;;;;;;91.18;36.90;;;;;;;-1.65;100.00;100920.56;5282996;28;20127;-74
2022/12/10 11:29:24;;;;;;;76.80;34.73;;;;;;;-1.57;100.00;100913.22;5283024;28;20107;-74
2022/12/10 11:32:04;;;;;;;79.18;36.45;;;;;;;-1.46;100.00;100914.50;5283273;28;20036;-74
2022/12/10 11:34:51;;;;;;;93.53;37.40;;;;;;;-1.64;100.00;100914.66;5283010;28;20101;-74
2022/12/10 11:37:41;;;;;;;73.50;33.83;;;;;;;-1.56;100.00;100920.03;5282892;28;20043;-73
2022/12/10 11:40:33;;;;;;;77.53;31.77;;;;;;;-1.63;100.00;100918.06;5282891;28;20028;-74